Impacts METAR Board
IDs:

KTLH - Tallahassee Intl, FL, US

Updated at: 1700 UTC 23 Jan 2019
Potential Impact None Slight Moderate High
Time 23/05Z 23/06Z 23/07Z 23/08Z 23/09Z 23/10Z 23/11Z 23/12Z 23/13Z 23/14Z 23/15Z 23/16Z 23/17Z
Temp60 60 60 59 58 58 58 59 59 60 63 69 71
Dewpt52 52 53 53 53 54 54 54 54 54 55 57 57
Altim30.28 30.27 30.27 30.26 30.24 30.22 30.20 30.19 30.20 30.20 30.19 30.17 30.14
VIS10 10 10 10 10 10 10 10 10 10 10 10 10
CIG70 65 65 65 65 65 65 65 65 50 50 85 85
CoverOVCOVCOVCOVCOVCOVCBKNBKNBKNBKNOVCBKNBKN
FltCatVFRVFRVFRVFRVFRVFRVFRVFRVFRVFRVFRVFRVFR
WX--------------------------
WDir909010011011012010012011090120160170
WSpd7 8 10 11 10 8 9 9 6 5 5 15 20
WGst-- -- -- -- -- -- -- -- -- -- -- 21 27
Raw hourly METARs
KTLH 230453Z AUTO 09007KT 10SM OVC070 16/11 A3028 RMK AO2 SLP254 T01560111 402000039
KTLH 230553Z AUTO 09008KT 10SM OVC065 16/11 A3027 RMK AO2 SLP250 T01560111 10167 20144 58009
KTLH 230653Z AUTO 10010KT 10SM OVC065 16/12 A3027 RMK AO2 SLP248 T01560117
KTLH 230753Z AUTO 11011KT 10SM OVC065 15/12 A3026 RMK AO2 SLP245 T01500117
KTLH 230853Z AUTO 11010KT 10SM OVC065 14/12 A3024 RMK AO2 SLP238 T01440117 58012
KTLH 230953Z AUTO 12008KT 10SM OVC065 14/12 A3022 RMK AO2 SLP233 T01440122
KTLH 231053Z 10009KT 10SM FEW049 BKN065 14/12 A3020 RMK AO2 SLP227 T01440122
KTLH 231153Z 12009KT 10SM BKN065 15/12 A3019 RMK AO2 SLP222 T01500122 10156 20139 56015
KTLH 231253Z 11006KT 10SM BKN065 15/12 A3020 RMK AO2 SLP224 T01500122
KTLH 231353Z 09005KT 10SM BKN050 BKN070 16/12 A3020 RMK AO2 SLP227 T01560122
KTLH 231453Z 12005KT 10SM BKN050 OVC065 17/13 A3019 RMK AO2 SLP224 T01720128 50001
KTLH 231553Z 16015G21KT 10SM SCT050 BKN085 21/14 A3017 RMK AO2 SLP214 T02060139
KTLH 231653Z 17020G27KT 10SM FEW050 BKN085 22/14 A3014 RMK AO2 PK WND 15032/1639 SLP204 T02170139



Page loaded:  17:27 UTC  |   09:27 AM Pacific  |   10:27 AM Mountain  |   11:27 AM Central  |   12:27 PM Eastern

 

ADVISORIES

FORECASTS

FORECASTS

OBSERVATIONS

USER TOOLS

ABOUT US